Time,TemperatureF,DewpointF,PressureIn,WindDirection,WindDirectionDegrees,WindSpeedMPH,WindSpeedGustMPH,Humidity,HourlyPrecipIn,Conditions,Clouds,dailyrainin,SoftwareType,DateUTC
2013-09-11 00:02:00,74.6,71.5,29.98,SSE,161,0.0,2.0,90,0.00,,---,0.00,VWS V14.01,2013-09-11 05:02:00,
2013-09-11 00:07:00,74.6,71.5,29.98,SSE,161,0.0,1.0,90,0.00,,---,0.00,VWS V14.01,2013-09-11 05:07:00,
2013-09-11 00:12:00,74.5,71.4,29.98,SSE,161,0.0,1.0,90,0.00,,---,0.00,VWS V14.01,2013-09-11 05:12:00,
2013-09-11 00:17:00,74.4,71.3,29.98,SSE,161,0.0,1.0,90,0.00,,---,0.00,VWS V14.01,2013-09-11 05:17:00,
2013-09-11 00:22:00,74.3,71.2,29.98,SSE,163,0.0,1.0,90,0.00,,---,0.00,VWS V14.01,2013-09-11 05:22:00,
2013-09-11 00:27:00,74.2,71.4,29.98,SSE,163,0.0,1.0,91,0.00,,---,0.00,VWS V14.01,2013-09-11 05:27:00,
2013-09-11 00:32:00,74.2,71.4,29.99,SSE,163,0.0,1.0,91,0.00,,---,0.00,VWS V14.01,2013-09-11 05:32:00,
2013-09-11 00:37:00,74.1,71.3,29.99,SSE,163,0.0,0.0,91,0.00,,---,0.00,VWS V14.01,2013-09-11 05:37:00,
2013-09-11 00:42:00,73.9,71.1,29.99,SSE,163,0.0,0.0,91,0.00,,---,0.00,VWS V14.01,2013-09-11 05:42:00,
2013-09-11 00:47:00,73.8,71.0,29.99,SSE,163,0.0,0.0,91,0.00,,---,0.00,VWS V14.01,2013-09-11 05:47:00,
2013-09-11 00:52:00,73.6,70.8,29.99,SSE,163,0.0,0.0,91,0.00,,---,0.00,VWS V14.01,2013-09-11 05:52:00,
2013-09-11 00:57:00,73.5,71.0,29.99,SSE,163,0.0,0.0,92,0.00,,---,0.00,VWS V14.01,2013-09-11 05:57:00,
2013-09-11 01:02:00,73.4,70.9,29.99,SSE,163,0.0,0.0,92,0.00,,---,0.00,VWS V14.01,2013-09-11 06:02:00,
2013-09-11 01:07:00,73.2,70.7,29.99,SSE,163,0.0,0.0,92,0.00,,---,0.00,VWS V14.01,2013-09-11 06:07:00,
2013-09-11 01:12:00,73.1,70.6,29.99,SSE,163,0.0,0.0,92,0.00,,---,0.00,VWS V14.01,2013-09-11 06:12:00,
2013-09-11 01:17:00,73.0,70.5,29.99,SSE,163,0.0,0.0,92,0.00,,---,0.00,VWS V14.01,2013-09-11 06:17:00,
2013-09-11 01:22:00,72.9,70.8,29.99,SSE,163,0.0,0.0,93,0.00,,---,0.00,VWS V14.01,2013-09-11 06:22:00,
2013-09-11 01:27:00,72.8,70.7,29.99,SSE,163,0.0,0.0,93,0.00,,---,0.00,VWS V14.01,2013-09-11 06:27:00,
2013-09-11 01:32:00,72.7,70.6,29.99,SSE,163,0.0,0.0,93,0.00,,---,0.00,VWS V14.01,2013-09-11 06:32:00,
2013-09-11 01:37:00,72.6,70.5,29.99,SSE,163,0.0,0.0,93,0.00,,---,0.00,VWS V14.01,2013-09-11 06:37:00,
2013-09-11 01:42:00,72.5,70.4,29.99,SSE,163,0.0,0.0,93,0.00,,---,0.00,VWS V14.01,2013-09-11 06:42:00,
2013-09-11 01:47:00,72.4,70.3,29.99,SSE,163,0.0,0.0,93,0.00,,---,0.00,VWS V14.01,2013-09-11 06:47:00,
2013-09-11 01:52:00,72.3,70.2,29.99,SSE,163,0.0,0.0,93,0.00,,---,0.00,VWS V14.01,2013-09-11 06:52:00,
2013-09-11 01:57:00,72.2,70.1,29.99,SSE,163,0.0,0.0,93,0.00,,---,0.00,VWS V14.01,2013-09-11 06:57:00,
2013-09-11 02:02:00,72.2,70.4,29.98,SSE,163,0.0,0.0,94,0.00,,---,0.00,VWS V14.01,2013-09-11 07:02:00,
2013-09-11 02:07:00,72.1,70.3,29.98,SSE,163,0.0,0.0,94,0.00,,---,0.00,VWS V14.01,2013-09-11 07:07:00,
2013-09-11 02:12:00,72.0,70.2,29.98,SSE,163,0.0,0.0,94,0.00,,---,0.00,VWS V14.01,2013-09-11 07:12:00,
2013-09-11 02:17:00,71.9,70.1,29.98,SSE,163,0.0,0.0,94,0.00,,---,0.00,VWS V14.01,2013-09-11 07:17:00,
2013-09-11 02:22:00,71.9,70.1,29.98,SSE,163,0.0,0.0,94,0.00,,---,0.00,VWS V14.01,2013-09-11 07:22:00,
2013-09-11 02:27:00,71.8,70.0,29.98,SSE,163,0.0,0.0,94,0.00,,---,0.00,VWS V14.01,2013-09-11 07:27:00,
2013-09-11 02:32:00,71.8,70.0,29.98,SSE,163,0.0,0.0,94,0.00,,---,0.00,VWS V14.01,2013-09-11 07:32:00,
2013-09-11 02:37:00,71.7,69.9,29.98,SSE,163,0.0,0.0,94,0.00,,---,0.00,VWS V14.01,2013-09-11 07:37:00,
2013-09-11 02:42:00,71.6,69.8,29.98,SSE,163,0.0,0.0,94,0.00,,---,0.00,VWS V14.01,2013-09-11 07:42:00,
2013-09-11 02:47:00,71.6,69.8,29.98,SSE,163,0.0,0.0,94,0.00,,---,0.00,VWS V14.01,2013-09-11 07:47:00,
2013-09-11 02:52:00,71.4,69.6,29.98,SSE,163,0.0,0.0,94,0.00,,---,0.00,VWS V14.01,2013-09-11 07:52:00,
2013-09-11 02:57:00,71.3,69.5,29.98,SSE,163,0.0,0.0,94,0.00,,---,0.00,VWS V14.01,2013-09-11 07:57:00,
2013-09-11 03:02:00,71.3,69.5,29.99,SSE,163,0.0,0.0,94,0.00,,---,0.00,VWS V14.01,2013-09-11 08:02:00,
2013-09-11 03:07:00,71.3,69.5,29.99,SSE,163,0.0,0.0,94,0.00,,---,0.00,VWS V14.01,2013-09-11 08:07:00,
2013-09-11 03:12:00,71.2,69.4,29.99,SSE,163,0.0,0.0,94,0.00,,---,0.00,VWS V14.01,2013-09-11 08:12:00,
2013-09-11 03:17:00,71.2,69.4,29.99,SSE,163,0.0,0.0,94,0.00,,---,0.00,VWS V14.01,2013-09-11 08:17:00,
2013-09-11 03:22:00,71.2,69.4,29.99,SSE,163,0.0,0.0,94,0.00,,---,0.00,VWS V14.01,2013-09-11 08:22:00,
2013-09-11 03:27:00,71.2,69.7,29.99,SSE,163,0.0,0.0,95,0.00,,---,0.00,VWS V14.01,2013-09-11 08:27:00,
2013-09-11 03:32:00,71.2,69.7,29.99,SSE,163,0.0,0.0,95,0.00,,---,0.00,VWS V14.01,2013-09-11 08:32:00,
2013-09-11 03:37:00,71.2,69.7,29.99,SSE,163,0.0,0.0,95,0.00,,---,0.00,VWS V14.01,2013-09-11 08:37:00,
2013-09-11 03:42:00,71.1,69.6,29.99,SSE,163,0.0,0.0,95,0.00,,---,0.00,VWS V14.01,2013-09-11 08:42:00,
2013-09-11 03:47:00,71.0,69.5,29.99,SSE,163,0.0,0.0,95,0.00,,---,0.00,VWS V14.01,2013-09-11 08:47:00,
2013-09-11 03:52:00,71.0,69.5,29.99,SSE,163,0.0,0.0,95,0.00,,---,0.00,VWS V14.01,2013-09-11 08:52:00,
2013-09-11 03:57:00,70.9,69.4,29.99,SSE,163,0.0,0.0,95,0.00,,---,0.00,VWS V14.01,2013-09-11 08:57:00,
2013-09-11 04:02:00,70.8,69.3,29.99,SSE,163,0.0,0.0,95,0.00,,---,0.00,VWS V14.01,2013-09-11 09:02:00,
2013-09-11 04:07:00,70.7,69.2,29.99,SSE,163,0.0,0.0,95,0.00,,---,0.00,VWS V14.01,2013-09-11 09:07:00,
2013-09-11 04:12:00,70.6,69.1,29.99,SSE,163,0.0,0.0,95,0.00,,---,0.00,VWS V14.01,2013-09-11 09:12:00,
2013-09-11 04:17:00,70.6,69.1,30.00,SSE,163,0.0,0.0,95,0.00,,---,0.00,VWS V14.01,2013-09-11 09:17:00,
2013-09-11 04:22:00,70.4,68.9,30.00,SSE,163,0.0,0.0,95,0.00,,---,0.00,VWS V14.01,2013-09-11 09:22:00,
2013-09-11 04:27:00,70.4,68.9,30.00,SSE,163,0.0,0.0,95,0.00,,---,0.00,VWS V14.01,2013-09-11 09:27:00,
2013-09-11 04:32:00,70.4,68.9,30.00,SSE,163,0.0,0.0,95,0.00,,---,0.00,VWS V14.01,2013-09-11 09:32:00,
2013-09-11 04:37:00,70.5,69.0,30.00,SSE,163,0.0,0.0,95,0.00,,---,0.00,VWS V14.01,2013-09-11 09:37:00,
2013-09-11 04:42:00,70.4,68.9,30.00,SSE,163,0.0,0.0,95,0.00,,---,0.00,VWS V14.01,2013-09-11 09:42:00,
2013-09-11 04:47:00,70.4,68.9,30.00,SSE,163,0.0,0.0,95,0.00,,---,0.00,VWS V14.01,2013-09-11 09:47:00,
2013-09-11 04:52:00,70.3,68.8,30.00,SSE,163,0.0,0.0,95,0.00,,---,0.00,VWS V14.01,2013-09-11 09:52:00,
2013-09-11 04:57:00,70.2,68.7,30.00,SSE,163,0.0,0.0,95,0.00,,---,0.00,VWS V14.01,2013-09-11 09:57:00,
2013-09-11 05:02:00,70.1,68.6,30.00,SSE,163,0.0,0.0,95,0.00,,---,0.00,VWS V14.01,2013-09-11 10:02:00,
2013-09-11 05:07:00,70.2,68.7,30.00,SSE,163,0.0,0.0,95,0.00,,---,0.00,VWS V14.01,2013-09-11 10:07:00,
2013-09-11 05:12:00,70.2,68.7,30.00,SSE,163,0.0,0.0,95,0.00,,---,0.00,VWS V14.01,2013-09-11 10:12:00,
2013-09-11 05:17:00,70.2,68.7,30.00,SSE,163,0.0,0.0,95,0.00,,---,0.00,VWS V14.01,2013-09-11 10:17:00,
2013-09-11 05:22:00,70.1,68.6,30.00,SSE,163,0.0,0.0,95,0.00,,---,0.00,VWS V14.01,2013-09-11 10:22:00,
2013-09-11 05:27:00,70.0,68.5,30.00,SSE,163,0.0,0.0,95,0.00,,---,0.00,VWS V14.01,2013-09-11 10:27:00,
2013-09-11 05:32:00,69.9,68.4,30.00,SSE,163,0.0,0.0,95,0.00,,---,0.00,VWS V14.01,2013-09-11 10:32:00,
2013-09-11 05:37:00,69.9,68.4,30.00,SSE,163,0.0,0.0,95,0.00,,---,0.00,VWS V14.01,2013-09-11 10:37:00,
2013-09-11 05:42:00,69.9,68.4,30.00,SSE,163,0.0,0.0,95,0.00,,---,0.00,VWS V14.01,2013-09-11 10:42:00,
2013-09-11 05:47:00,69.8,68.3,30.00,SSE,163,0.0,0.0,95,0.00,,---,0.00,VWS V14.01,2013-09-11 10:47:00,
2013-09-11 05:52:00,69.7,68.2,30.00,SSE,163,0.0,0.0,95,0.00,,---,0.00,VWS V14.01,2013-09-11 10:52:00,
2013-09-11 05:56:00,69.7,68.2,30.00,SSE,163,0.0,0.0,95,0.00,,---,0.00,VWS V14.01,2013-09-11 10:56:00,
2013-09-11 06:01:00,69.7,68.2,30.01,SSE,163,0.0,0.0,95,0.00,,---,0.00,VWS V14.01,2013-09-11 11:01:00,
2013-09-11 06:06:00,69.7,68.5,30.01,SSE,163,0.0,0.0,96,0.00,,---,0.00,VWS V14.01,2013-09-11 11:06:00,
2013-09-11 06:12:00,69.8,68.6,30.01,SSE,163,0.0,0.0,96,0.00,,---,0.00,VWS V14.01,2013-09-11 11:12:00,
2013-09-11 06:17:00,69.8,68.6,30.02,SSE,162,0.0,0.0,96,0.00,,---,0.00,VWS V14.01,2013-09-11 11:17:00,
2013-09-11 06:22:00,69.7,68.5,30.02,SSE,162,0.0,0.0,96,0.00,,---,0.00,VWS V14.01,2013-09-11 11:22:00,
2013-09-11 06:27:00,69.8,68.6,30.02,SSE,163,0.0,0.0,96,0.00,,---,0.00,VWS V14.01,2013-09-11 11:27:00,
2013-09-11 06:32:00,69.7,68.5,30.02,SSE,163,0.0,0.0,96,0.00,,---,0.00,VWS V14.01,2013-09-11 11:32:00,
2013-09-11 06:37:00,69.7,68.5,30.02,SSE,162,0.0,0.0,96,0.00,,---,0.00,VWS V14.01,2013-09-11 11:37:00,
2013-09-11 06:42:00,69.6,68.4,30.02,SSE,163,0.0,0.0,96,0.00,,---,0.00,VWS V14.01,2013-09-11 11:42:00,
2013-09-11 06:46:00,69.6,68.4,30.02,SSE,163,0.0,0.0,96,0.00,,---,0.00,VWS V14.01,2013-09-11 11:46:00,
2013-09-11 06:51:00,69.6,68.4,30.02,SSE,163,0.0,0.0,96,0.00,,---,0.00,VWS V14.01,2013-09-11 11:51:00,
2013-09-11 06:56:00,69.7,68.5,30.02,SSE,163,0.0,0.0,96,0.00,,---,0.00,VWS V14.01,2013-09-11 11:56:00,
2013-09-11 07:01:00,69.7,68.5,30.02,SSE,162,0.0,0.0,96,0.00,,---,0.00,VWS V14.01,2013-09-11 12:01:00,
2013-09-11 07:06:00,69.8,68.6,30.02,SSE,163,0.0,0.0,96,0.00,,---,0.00,VWS V14.01,2013-09-11 12:06:00,
2013-09-11 07:11:00,69.9,68.7,30.02,SSE,163,0.0,0.0,96,0.00,,---,0.00,VWS V14.01,2013-09-11 12:11:00,
2013-09-11 07:16:00,70.1,68.9,30.03,SSE,162,0.0,0.0,96,0.00,,---,0.00,VWS V14.01,2013-09-11 12:16:00,
2013-09-11 07:21:00,70.3,69.1,30.03,SSE,163,0.0,0.0,96,0.00,,---,0.00,VWS V14.01,2013-09-11 12:21:00,
2013-09-11 07:26:00,70.7,69.5,30.03,SSE,162,0.0,0.0,96,0.00,,---,0.00,VWS V14.01,2013-09-11 12:26:00,
2013-09-11 07:31:00,71.0,69.8,30.02,SSE,163,0.0,0.0,96,0.00,,---,0.00,VWS V14.01,2013-09-11 12:31:00,
2013-09-11 07:36:00,71.3,70.1,30.02,SSE,162,0.0,0.0,96,0.00,,---,0.00,VWS V14.01,2013-09-11 12:36:00,
2013-09-11 07:41:00,71.7,70.5,30.02,SSE,162,0.0,0.0,96,0.00,,---,0.00,VWS V14.01,2013-09-11 12:41:00,
2013-09-11 07:46:00,72.0,70.8,30.03,SSE,163,0.0,0.0,96,0.00,,---,0.00,VWS V14.01,2013-09-11 12:46:00,
2013-09-11 07:51:00,72.3,71.1,30.03,SSE,163,0.0,0.0,96,0.00,,---,0.00,VWS V14.01,2013-09-11 12:51:00,
2013-09-11 07:56:00,72.6,71.4,30.03,SSE,163,0.0,2.0,96,0.00,,---,0.00,VWS V14.01,2013-09-11 12:56:00,
2013-09-11 08:01:00,72.8,71.6,30.03,SSE,163,0.0,3.0,96,0.00,,---,0.00,VWS V14.01,2013-09-11 13:01:00,
2013-09-11 08:06:00,73.0,71.8,30.03,South,170,0.0,2.0,96,0.00,,---,0.00,VWS V14.01,2013-09-11 13:06:00,
2013-09-11 08:11:00,73.3,71.8,30.03,SSE,159,0.0,2.0,95,0.00,,---,0.00,VWS V14.01,2013-09-11 13:11:00,
2013-09-11 08:16:00,73.6,72.1,30.03,SSE,159,0.0,2.0,95,0.00,,---,0.00,VWS V14.01,2013-09-11 13:16:00,
2013-09-11 08:21:00,74.0,72.5,30.03,SSE,159,0.0,2.0,95,0.00,,---,0.00,VWS V14.01,2013-09-11 13:21:00,
2013-09-11 08:26:00,74.3,72.5,30.03,South,184,0.0,2.0,94,0.00,,---,0.00,VWS V14.01,2013-09-11 13:26:00,
2013-09-11 08:31:00,74.8,73.0,30.02,South,185,0.0,2.0,94,0.00,,---,0.00,VWS V14.01,2013-09-11 13:31:00,
2013-09-11 08:36:00,75.3,73.1,30.02,South,185,0.0,1.0,93,0.00,,---,0.00,VWS V14.01,2013-09-11 13:36:00,
2013-09-11 08:41:00,75.8,73.6,30.02,SSE,159,0.0,3.0,93,0.00,,---,0.00,VWS V14.01,2013-09-11 13:41:00,
2013-09-11 08:46:00,76.2,73.4,30.03,SSE,161,0.0,3.0,91,0.00,,---,0.00,VWS V14.01,2013-09-11 13:46:00,
2013-09-11 08:51:00,76.7,73.9,30.03,SSE,161,0.0,3.0,91,0.00,,---,0.00,VWS V14.01,2013-09-11 13:51:00,
2013-09-11 08:56:00,77.1,73.9,30.03,SSE,161,0.0,3.0,90,0.00,,---,0.00,VWS V14.01,2013-09-11 13:56:00,
2013-09-11 09:01:00,77.5,74.0,30.03,SSE,159,0.0,3.0,89,0.00,,---,0.00,VWS V14.01,2013-09-11 14:01:00,
2013-09-11 09:07:00,77.7,73.9,30.03,West,273,0.0,2.0,88,0.00,,---,0.00,VWS V14.01,2013-09-11 14:07:00,
2013-09-11 09:12:00,78.0,73.8,30.03,SW,232,0.0,3.0,87,0.00,,---,0.00,VWS V14.01,2013-09-11 14:12:00,
2013-09-11 09:17:00,78.3,74.1,30.03,WSW,248,0.0,3.0,87,0.00,,---,0.00,VWS V14.01,2013-09-11 14:17:00,
2013-09-11 09:22:00,78.7,74.2,30.03,WSW,248,0.0,3.0,86,0.00,,---,0.00,VWS V14.01,2013-09-11 14:22:00,
2013-09-11 09:27:00,78.8,74.3,30.03,WNW,284,0.0,5.0,86,0.00,,---,0.00,VWS V14.01,2013-09-11 14:27:00,
2013-09-11 09:31:00,79.3,74.4,30.02,South,181,0.0,5.0,85,0.00,,---,0.00,VWS V14.01,2013-09-11 14:31:00,
2013-09-11 09:36:00,79.7,74.8,30.02,WSW,241,0.0,1.0,85,0.00,,---,0.00,VWS V14.01,2013-09-11 14:36:00,
2013-09-11 09:41:00,79.9,74.6,30.02,WNW,300,0.0,5.0,84,0.00,,---,0.00,VWS V14.01,2013-09-11 14:41:00,
2013-09-11 09:46:00,80.1,74.5,30.03,SSE,166,1.0,5.0,83,0.00,,---,0.00,VWS V14.01,2013-09-11 14:46:00,
2013-09-11 09:51:00,80.4,74.8,30.03,NW,304,2.0,5.0,83,0.00,,---,0.00,VWS V14.01,2013-09-11 14:51:00,
2013-09-11 09:56:00,80.6,75.0,30.03,WNW,297,1.0,5.0,83,0.00,,---,0.00,VWS V14.01,2013-09-11 14:56:00,
2013-09-11 10:01:00,80.9,74.9,30.03,WNW,290,0.0,5.0,82,0.00,,---,0.00,VWS V14.01,2013-09-11 15:01:00,
2013-09-11 10:06:00,81.3,75.3,30.03,WSW,256,0.0,1.0,82,0.00,,---,0.00,VWS V14.01,2013-09-11 15:06:00,
2013-09-11 10:11:00,81.6,75.2,30.03,NW,309,3.0,4.0,81,0.00,,---,0.00,VWS V14.01,2013-09-11 15:11:00,
2013-09-11 10:16:00,81.8,75.4,30.03,NW,314,0.0,4.0,81,0.00,,---,0.00,VWS V14.01,2013-09-11 15:16:00,
2013-09-11 10:21:00,82.0,75.2,30.03,WNW,300,0.0,4.0,80,0.00,,---,0.00,VWS V14.01,2013-09-11 15:21:00,
2013-09-11 10:26:00,82.2,75.4,30.03,WNW,289,1.0,4.0,80,0.00,,---,0.00,VWS V14.01,2013-09-11 15:26:00,
2013-09-11 10:31:00,82.6,75.4,30.03,SSW,200,1.0,4.0,79,0.00,,---,0.00,VWS V14.01,2013-09-11 15:31:00,
2013-09-11 10:36:00,83.1,75.5,30.03,WNW,297,1.0,4.0,78,0.00,,---,0.00,VWS V14.01,2013-09-11 15:36:00,
2013-09-11 10:41:00,83.4,75.4,30.03,SW,227,2.0,4.0,77,0.00,,---,0.00,VWS V14.01,2013-09-11 15:41:00,
2013-09-11 10:46:00,83.6,74.8,30.02,WNW,289,0.0,5.0,75,0.00,,---,0.00,VWS V14.01,2013-09-11 15:46:00,
2013-09-11 10:51:00,84.0,76.0,30.02,WNW,290,0.0,5.0,77,0.00,,---,0.00,VWS V14.01,2013-09-11 15:51:00,
2013-09-11 10:56:00,84.8,75.6,30.02,WNW,289,0.0,5.0,74,0.00,,---,0.00,VWS V14.01,2013-09-11 15:56:00,
2013-09-11 11:01:00,85.4,76.6,30.02,South,189,2.0,5.0,75,0.00,,---,0.00,VWS V14.01,2013-09-11 16:01:00,
2013-09-11 11:06:00,86.0,76.3,30.02,WSW,255,1.0,1.0,73,0.00,,---,0.00,VWS V14.01,2013-09-11 16:06:00,
2013-09-11 11:11:00,86.1,76.8,30.02,WSW,247,0.0,1.0,74,0.00,,---,0.00,VWS V14.01,2013-09-11 16:11:00,
2013-09-11 11:16:00,86.6,76.1,30.02,South,185,0.0,2.0,71,0.00,,---,0.00,VWS V14.01,2013-09-11 16:16:00,
2013-09-11 11:21:00,87.1,76.6,30.02,South,176,0.0,3.0,71,0.00,,---,0.00,VWS V14.01,2013-09-11 16:21:00,
2013-09-11 11:26:00,87.6,76.2,30.02,WNW,299,1.0,4.0,69,0.00,,---,0.00,VWS V14.01,2013-09-11 16:26:00,
2013-09-11 11:31:00,87.1,76.6,30.02,WSW,239,0.0,4.0,71,0.00,,---,0.00,VWS V14.01,2013-09-11 16:31:00,
2013-09-11 11:36:00,86.8,75.8,30.02,WNW,284,0.0,2.0,70,0.00,,---,0.00,VWS V14.01,2013-09-11 16:36:00,
2013-09-11 11:41:00,86.5,76.8,30.02,SSE,167,0.0,2.0,73,0.00,,---,0.00,VWS V14.01,2013-09-11 16:41:00,
2013-09-11 11:46:00,87.3,76.8,30.01,SSE,167,0.0,2.0,71,0.00,,---,0.00,VWS V14.01,2013-09-11 16:46:00,
2013-09-11 11:51:00,88.3,76.8,30.01,SSE,166,0.0,2.0,69,0.00,,---,0.00,VWS V14.01,2013-09-11 16:51:00,
2013-09-11 11:56:00,89.1,76.7,30.01,SSE,165,1.0,3.0,67,0.00,,---,0.00,VWS V14.01,2013-09-11 16:56:00,
2013-09-11 12:01:00,89.2,76.4,30.01,South,169,0.0,3.0,66,0.00,,---,0.00,VWS V14.01,2013-09-11 17:01:00,
2013-09-11 12:06:00,89.0,76.2,30.01,WNW,297,0.0,3.0,66,0.00,,---,0.00,VWS V14.01,2013-09-11 17:06:00,
2013-09-11 12:11:00,89.7,77.3,30.01,South,188,0.0,3.0,67,0.00,,---,0.00,VWS V14.01,2013-09-11 17:11:00,
2013-09-11 12:16:00,90.3,77.4,30.00,SSE,159,1.0,3.0,66,0.00,,---,0.00,VWS V14.01,2013-09-11 17:16:00,
2013-09-11 12:21:00,90.6,77.2,30.00,ESE,114,0.0,3.0,65,0.00,,---,0.00,VWS V14.01,2013-09-11 17:21:00,
2013-09-11 12:26:00,91.3,78.3,30.00,SSE,162,0.0,3.0,66,0.00,,---,0.00,VWS V14.01,2013-09-11 17:26:00,
2013-09-11 12:31:00,91.8,77.4,30.00,West,272,1.0,3.0,63,0.00,,---,0.00,VWS V14.01,2013-09-11 17:31:00,
2013-09-11 12:36:00,91.7,77.3,30.00,SSW,213,0.0,1.0,63,0.00,,---,0.00,VWS V14.01,2013-09-11 17:36:00,
2013-09-11 12:41:00,91.6,77.2,30.00,SSE,152,0.0,3.0,63,0.00,,---,0.00,VWS V14.01,2013-09-11 17:41:00,
2013-09-11 12:46:00,91.5,77.6,30.00,SSE,164,0.0,3.0,64,0.00,,---,0.00,VWS V14.01,2013-09-11 17:46:00,
2013-09-11 12:51:00,92.0,76.6,30.00,SSE,163,0.0,3.0,61,0.00,,---,0.00,VWS V14.01,2013-09-11 17:51:00,
2013-09-11 12:56:00,92.1,76.7,30.00,SW,231,1.0,3.0,61,0.00,,---,0.00,VWS V14.01,2013-09-11 17:56:00,
2013-09-11 13:01:00,92.0,76.6,30.00,SSE,167,0.0,3.0,61,0.00,,---,0.00,VWS V14.01,2013-09-11 18:01:00,
2013-09-11 13:06:00,91.8,75.9,30.00,SSE,153,0.0,1.0,60,0.00,,---,0.00,VWS V14.01,2013-09-11 18:06:00,
2013-09-11 13:11:00,92.4,76.5,30.00,South,173,0.0,1.0,60,0.00,,---,0.00,VWS V14.01,2013-09-11 18:11:00,
2013-09-11 13:16:00,92.9,77.0,29.99,South,179,0.0,2.0,60,0.00,,---,0.00,VWS V14.01,2013-09-11 18:16:00,
2013-09-11 13:21:00,93.4,77.9,29.99,SSE,160,0.0,2.0,61,0.00,,---,0.00,VWS V14.01,2013-09-11 18:21:00,
2013-09-11 13:26:00,93.5,77.0,29.99,SSE,160,0.0,2.0,59,0.00,,---,0.00,VWS V14.01,2013-09-11 18:26:00,
2013-09-11 13:31:00,93.8,77.8,29.98,South,173,0.0,3.0,60,0.00,,---,0.00,VWS V14.01,2013-09-11 18:31:00,
2013-09-11 13:36:00,93.8,76.3,29.98,WSW,250,0.0,1.0,57,0.00,,---,0.00,VWS V14.01,2013-09-11 18:36:00,
2013-09-11 13:41:00,94.0,77.0,29.98,South,172,0.0,2.0,58,0.00,,---,0.00,VWS V14.01,2013-09-11 18:41:00,
2013-09-11 13:46:00,94.2,77.2,29.97,SSE,159,1.0,2.0,58,0.00,,---,0.00,VWS V14.01,2013-09-11 18:46:00,
2013-09-11 13:51:00,94.0,77.0,29.97,South,184,0.0,4.0,58,0.00,,---,0.00,VWS V14.01,2013-09-11 18:51:00,
2013-09-11 13:56:00,94.1,77.1,29.97,WSW,247,0.0,4.0,58,0.00,,---,0.00,VWS V14.01,2013-09-11 18:56:00,
2013-09-11 14:01:00,93.7,77.7,29.97,East,96,0.0,4.0,60,0.00,,---,0.00,VWS V14.01,2013-09-11 19:01:00,
2013-09-11 14:06:00,94.0,77.5,29.97,South,191,1.0,1.0,59,0.00,,---,0.00,VWS V14.01,2013-09-11 19:06:00,
2013-09-11 14:11:00,94.2,77.7,29.97,SSE,165,0.0,3.0,59,0.00,,---,0.00,VWS V14.01,2013-09-11 19:11:00,
2013-09-11 14:16:00,94.2,77.2,29.95,South,169,0.0,3.0,58,0.00,,---,0.00,VWS V14.01,2013-09-11 19:16:00,
2013-09-11 14:21:00,94.8,77.2,29.95,WSW,244,0.0,3.0,57,0.00,,---,0.00,VWS V14.01,2013-09-11 19:21:00,
2013-09-11 14:26:00,94.8,77.7,29.95,West,280,0.0,3.0,58,0.00,,---,0.00,VWS V14.01,2013-09-11 19:26:00,
2013-09-11 14:31:00,94.3,77.3,29.95,WNW,301,4.0,5.0,58,0.00,,---,0.00,VWS V14.01,2013-09-11 19:31:00,
2013-09-11 14:36:00,93.8,76.8,29.95,SSW,202,0.0,5.0,58,0.00,,---,0.00,VWS V14.01,2013-09-11 19:36:00,
2013-09-11 14:41:00,93.9,76.9,29.95,South,176,0.0,5.0,58,0.00,,---,0.00,VWS V14.01,2013-09-11 19:41:00,
2013-09-11 14:46:00,94.1,77.6,29.95,South,183,0.0,5.0,59,0.00,,---,0.00,VWS V14.01,2013-09-11 19:46:00,
2013-09-11 14:51:00,94.6,76.5,29.95,South,182,0.0,5.0,56,0.00,,---,0.00,VWS V14.01,2013-09-11 19:51:00,
2013-09-11 14:56:00,95.0,76.8,29.95,South,169,0.0,5.0,56,0.00,,---,0.00,VWS V14.01,2013-09-11 19:56:00,
2013-09-11 15:01:00,95.5,76.8,29.94,South,169,0.0,5.0,55,0.00,,---,0.00,VWS V14.01,2013-09-11 20:01:00,
2013-09-11 15:06:00,95.9,77.1,29.94,South,169,0.0,1.0,55,0.00,,---,0.00,VWS V14.01,2013-09-11 20:06:00,
2013-09-11 15:11:00,96.2,76.3,29.94,West,269,0.0,2.0,53,0.00,,---,0.00,VWS V14.01,2013-09-11 20:11:00,
2013-09-11 15:16:00,95.7,75.8,29.94,WNW,296,3.0,5.0,53,0.00,,---,0.00,VWS V14.01,2013-09-11 20:16:00,
2013-09-11 15:21:00,94.5,75.3,29.94,WNW,297,0.0,5.0,54,0.00,,---,0.00,VWS V14.01,2013-09-11 20:21:00,
2013-09-11 15:26:00,94.0,75.9,29.94,WNW,298,0.0,5.0,56,0.00,,---,0.00,VWS V14.01,2013-09-11 20:26:00,
2013-09-11 15:32:00,94.0,77.0,29.93,WNW,299,0.0,5.0,58,0.00,,---,0.00,VWS V14.01,2013-09-11 20:32:00,
2013-09-11 15:36:00,94.7,77.1,29.93,South,185,0.0,1.0,57,0.00,,---,0.00,VWS V14.01,2013-09-11 20:36:00,
2013-09-11 15:42:00,94.9,76.2,29.93,NW,305,1.0,2.0,55,0.00,,---,0.00,VWS V14.01,2013-09-11 20:42:00,
2013-09-11 15:47:00,94.1,75.5,29.93,SSE,165,0.0,2.0,55,0.00,,---,0.00,VWS V14.01,2013-09-11 20:47:00,
2013-09-11 15:52:00,93.8,76.3,29.93,SE,145,0.0,3.0,57,0.00,,---,0.00,VWS V14.01,2013-09-11 20:52:00,
2013-09-11 15:57:00,94.4,75.2,29.93,SW,234,0.0,3.0,54,0.00,,---,0.00,VWS V14.01,2013-09-11 20:57:00,
2013-09-11 16:02:00,94.4,76.3,29.93,SSE,159,0.0,3.0,56,0.00,,---,0.00,VWS V14.01,2013-09-11 21:02:00,
2013-09-11 16:07:00,95.2,75.4,29.93,SSE,163,0.0,1.0,53,0.00,,---,0.00,VWS V14.01,2013-09-11 21:07:00,
2013-09-11 16:12:00,95.6,75.8,29.93,NW,306,0.0,1.0,53,0.00,,---,0.00,VWS V14.01,2013-09-11 21:12:00,
2013-09-11 16:17:00,95.8,75.9,29.93,NW,306,0.0,1.0,53,0.00,,---,0.00,VWS V14.01,2013-09-11 21:17:00,
2013-09-11 16:22:00,95.5,75.7,29.93,West,277,0.0,1.0,53,0.00,,---,0.00,VWS V14.01,2013-09-11 21:22:00,
2013-09-11 16:27:00,95.6,75.2,29.93,West,277,0.0,1.0,52,0.00,,---,0.00,VWS V14.01,2013-09-11 21:27:00,
2013-09-11 16:32:00,96.1,76.8,29.92,West,277,0.0,1.0,54,0.00,,---,0.00,VWS V14.01,2013-09-11 21:32:00,
2013-09-11 16:37:00,96.3,75.8,29.92,West,281,0.0,1.0,52,0.00,,---,0.00,VWS V14.01,2013-09-11 21:37:00,
2013-09-11 16:42:00,95.5,75.1,29.92,West,281,0.0,1.0,52,0.00,,---,0.00,VWS V14.01,2013-09-11 21:42:00,
2013-09-11 16:47:00,95.1,75.8,29.92,SW,222,0.0,1.0,54,0.00,,---,0.00,VWS V14.01,2013-09-11 21:47:00,
2013-09-11 16:52:00,93.8,76.3,29.92,SSE,159,0.0,1.0,57,0.00,,---,0.00,VWS V14.01,2013-09-11 21:52:00,
2013-09-11 16:57:00,91.5,77.1,29.92,SSE,157,0.0,6.0,63,0.00,,---,0.00,VWS V14.01,2013-09-11 21:57:00,
2013-09-11 17:02:00,89.5,74.3,29.94,SE,132,0.0,9.0,61,0.00,,---,0.00,VWS V14.01,2013-09-11 22:02:00,
2013-09-11 17:07:00,87.8,73.6,29.94,SE,133,0.0,1.0,63,0.00,,---,0.00,VWS V14.01,2013-09-11 22:07:00,
2013-09-11 17:12:00,85.6,72.0,29.94,SSW,192,2.0,9.0,64,0.00,,---,0.00,VWS V14.01,2013-09-11 22:12:00,
2013-09-11 17:17:00,83.3,70.8,29.96,SSE,167,3.0,9.0,66,0.00,,---,0.00,VWS V14.01,2013-09-11 22:17:00,
2013-09-11 17:22:00,81.2,70.1,29.96,ESE,121,0.0,11.0,69,0.00,,---,0.00,VWS V14.01,2013-09-11 22:22:00,
2013-09-11 17:27:00,79.8,69.6,29.96,ESE,105,2.0,16.0,71,0.00,,---,0.00,VWS V14.01,2013-09-11 22:27:00,
2013-09-11 17:32:00,78.5,70.7,29.98,South,178,0.0,16.0,77,0.00,,---,0.00,VWS V14.01,2013-09-11 22:32:00,
2013-09-11 17:37:00,77.2,71.3,29.98,SW,217,6.0,11.0,82,0.00,,---,0.00,VWS V14.01,2013-09-11 22:37:00,
2013-09-11 17:42:00,76.0,71.5,29.98,SSE,153,13.0,13.0,86,0.00,,---,0.00,VWS V14.01,2013-09-11 22:42:00,
2013-09-11 17:47:00,75.2,71.4,29.96,ESE,118,1.0,15.0,88,0.00,,---,0.00,VWS V14.01,2013-09-11 22:47:00,
2013-09-11 17:52:00,74.8,71.7,29.96,SSW,192,0.0,15.0,90,0.00,,---,0.00,VWS V14.01,2013-09-11 22:52:00,
2013-09-11 17:57:00,74.7,71.6,29.96,SE,146,4.0,15.0,90,0.00,,---,0.00,VWS V14.01,2013-09-11 22:57:00,
2013-09-11 18:02:00,74.4,71.3,29.97,ENE,71,3.0,15.0,90,0.00,,---,0.00,VWS V14.01,2013-09-11 23:02:00,
2013-09-11 18:07:00,74.2,71.1,29.97,SSE,167,2.0,10.0,90,0.00,,---,0.00,VWS V14.01,2013-09-11 23:07:00,
2013-09-11 18:12:00,74.3,70.8,29.97,SSE,157,1.0,10.0,89,0.00,,---,0.00,VWS V14.01,2013-09-11 23:12:00,
2013-09-11 18:17:00,74.5,70.7,29.95,ESE,117,0.0,10.0,88,0.00,,---,0.00,VWS V14.01,2013-09-11 23:17:00,
2013-09-11 18:22:00,74.8,70.7,29.95,SSE,157,0.0,10.0,87,0.00,,---,0.00,VWS V14.01,2013-09-11 23:22:00,
2013-09-11 18:27:00,75.0,70.9,29.95,SSW,194,0.0,10.0,87,0.00,,---,0.00,VWS V14.01,2013-09-11 23:27:00,
2013-09-11 18:32:00,75.0,70.9,29.96,South,170,0.0,10.0,87,0.00,,---,0.00,VWS V14.01,2013-09-11 23:32:00,
2013-09-11 18:37:00,74.7,70.9,29.96,SSE,163,3.0,8.0,88,0.00,,---,0.00,VWS V14.01,2013-09-11 23:37:00,
2013-09-11 18:42:00,74.6,70.8,29.96,South,191,6.0,8.0,88,0.00,,---,0.00,VWS V14.01,2013-09-11 23:42:00,
2013-09-11 18:47:00,74.5,70.7,29.97,SSE,162,2.0,9.0,88,0.00,,---,0.00,VWS V14.01,2013-09-11 23:47:00,
2013-09-11 18:52:00,74.4,70.6,29.97,WSW,240,0.0,9.0,88,0.00,,---,0.00,VWS V14.01,2013-09-11 23:52:00,
2013-09-11 18:57:00,74.4,70.6,29.97,West,278,0.0,9.0,88,0.00,,---,0.00,VWS V14.01,2013-09-11 23:57:00,
2013-09-11 19:02:00,74.4,70.6,29.98,WSW,252,1.0,9.0,88,0.00,,---,0.00,VWS V14.01,2013-09-12 00:02:00,
2013-09-11 19:08:00,74.3,70.8,29.98,WSW,242,0.0,0.0,89,0.00,,---,0.00,VWS V14.01,2013-09-12 00:08:00,
2013-09-11 19:13:00,74.2,70.8,29.98,WSW,242,0.0,1.0,89,0.00,,---,0.00,VWS V14.01,2013-09-12 00:13:00,
2013-09-11 19:18:00,74.1,70.7,29.97,WSW,242,0.0,1.0,89,0.00,,---,0.00,VWS V14.01,2013-09-12 00:18:00,
2013-09-11 19:23:00,74.1,70.7,29.97,WSW,242,0.0,1.0,89,0.00,,---,0.00,VWS V14.01,2013-09-12 00:23:00,
2013-09-11 19:28:00,74.1,71.0,29.97,West,261,0.0,1.0,90,0.00,,---,0.00,VWS V14.01,2013-09-12 00:28:00,
2013-09-11 19:33:00,74.2,71.1,29.98,West,273,0.0,0.0,90,0.00,,---,0.00,VWS V14.01,2013-09-12 00:33:00,
2013-09-11 19:38:00,74.2,70.8,29.98,West,273,0.0,0.0,89,0.00,,---,0.00,VWS V14.01,2013-09-12 00:38:00,
2013-09-11 19:43:00,74.2,70.8,29.98,West,273,0.0,0.0,89,0.00,,---,0.00,VWS V14.01,2013-09-12 00:43:00,
2013-09-11 19:48:00,74.1,70.7,29.97,West,273,0.0,0.0,89,0.00,,---,0.00,VWS V14.01,2013-09-12 00:48:00,
2013-09-11 19:53:00,74.0,70.6,29.97,SSE,166,0.0,1.0,89,0.00,,---,0.00,VWS V14.01,2013-09-12 00:53:00,
2013-09-11 19:58:00,73.9,70.1,29.97,SSE,161,0.0,1.0,88,0.00,,---,0.00,VWS V14.01,2013-09-12 00:58:00,
2013-09-11 20:03:00,73.8,70.0,29.97,SSE,161,0.0,0.0,88,0.00,,---,0.00,VWS V14.01,2013-09-12 01:03:00,
2013-09-11 20:08:00,73.8,70.0,29.97,SSE,161,0.0,1.0,88,0.00,,---,0.00,VWS V14.01,2013-09-12 01:08:00,
2013-09-11 20:13:00,73.7,69.9,29.97,SSE,161,0.0,1.0,88,0.00,,---,0.00,VWS V14.01,2013-09-12 01:13:00,
2013-09-11 20:18:00,73.7,69.9,29.96,SSE,161,0.0,1.0,88,0.00,,---,0.00,VWS V14.01,2013-09-12 01:18:00,
2013-09-11 20:23:00,73.7,69.9,29.96,SSE,159,0.0,1.0,88,0.00,,---,0.00,VWS V14.01,2013-09-12 01:23:00,
2013-09-11 20:28:00,73.6,69.8,29.96,SSE,159,0.0,1.0,88,0.00,,---,0.00,VWS V14.01,2013-09-12 01:28:00,
2013-09-11 20:33:00,73.4,70.0,29.95,SSE,163,0.0,1.0,89,0.00,,---,0.00,VWS V14.01,2013-09-12 01:33:00,
2013-09-11 20:38:00,73.3,69.9,29.95,SSE,163,0.0,1.0,89,0.00,,---,0.00,VWS V14.01,2013-09-12 01:38:00,
2013-09-11 20:43:00,73.1,69.7,29.95,SSE,159,0.0,1.0,89,0.00,,---,0.00,VWS V14.01,2013-09-12 01:43:00,
2013-09-11 20:48:00,73.1,69.7,29.95,SSE,159,0.0,1.0,89,0.00,,---,0.00,VWS V14.01,2013-09-12 01:48:00,
2013-09-11 20:53:00,73.0,69.6,29.95,SSE,159,0.0,1.0,89,0.00,,---,0.00,VWS V14.01,2013-09-12 01:53:00,
2013-09-11 20:58:00,72.9,69.8,29.95,SSE,159,0.0,1.0,90,0.00,,---,0.00,VWS V14.01,2013-09-12 01:58:00,
2013-09-11 21:03:00,72.9,69.8,29.95,SSE,159,0.0,0.0,90,0.00,,---,0.00,VWS V14.01,2013-09-12 02:03:00,
2013-09-11 21:08:00,72.9,69.8,29.95,SSE,159,0.0,1.0,90,0.00,,---,0.00,VWS V14.01,2013-09-12 02:08:00,
2013-09-11 21:13:00,72.9,69.8,29.95,SSE,159,0.0,1.0,90,0.00,,---,0.00,VWS V14.01,2013-09-12 02:13:00,
2013-09-11 21:18:00,73.0,69.9,29.94,SSE,159,0.0,1.0,90,0.00,,---,0.00,VWS V14.01,2013-09-12 02:18:00,
2013-09-11 21:23:00,73.0,69.9,29.94,SSE,155,0.0,1.0,90,0.00,,---,0.00,VWS V14.01,2013-09-12 02:23:00,
2013-09-11 21:28:00,73.0,69.9,29.94,SSE,155,0.0,1.0,90,0.00,,---,0.00,VWS V14.01,2013-09-12 02:28:00,
2013-09-11 21:33:00,72.9,69.8,29.94,SSE,155,0.0,0.0,90,0.00,,---,0.00,VWS V14.01,2013-09-12 02:33:00,
2013-09-11 21:38:00,72.9,69.8,29.94,SSE,155,0.0,0.0,90,0.00,,---,0.00,VWS V14.01,2013-09-12 02:38:00,
2013-09-11 21:43:00,72.9,69.8,29.94,SSE,155,0.0,0.0,90,0.00,,---,0.00,VWS V14.01,2013-09-12 02:43:00,
2013-09-11 21:48:00,72.9,69.8,29.94,SSE,155,0.0,0.0,90,0.00,,---,0.00,VWS V14.01,2013-09-12 02:48:00,
2013-09-11 21:53:00,72.8,69.7,29.94,SSE,155,0.0,0.0,90,0.00,,---,0.00,VWS V14.01,2013-09-12 02:53:00,
2013-09-11 21:58:00,72.8,70.0,29.94,SSE,155,0.0,0.0,91,0.00,,---,0.00,VWS V14.01,2013-09-12 02:58:00,
2013-09-11 22:03:00,72.8,70.0,29.94,SSE,155,0.0,0.0,91,0.00,,---,0.00,VWS V14.01,2013-09-12 03:03:00,
2013-09-11 22:08:00,72.7,69.9,29.94,SSE,155,0.0,0.0,91,0.00,,---,0.00,VWS V14.01,2013-09-12 03:08:00,
2013-09-11 22:13:00,72.7,69.9,29.94,SSE,155,0.0,0.0,91,0.00,,---,0.00,VWS V14.01,2013-09-12 03:13:00,
2013-09-11 22:18:00,72.6,69.8,29.94,SSE,155,0.0,0.0,91,0.00,,---,0.00,VWS V14.01,2013-09-12 03:18:00,
2013-09-11 22:23:00,72.5,69.7,29.94,SSE,155,0.0,0.0,91,0.00,,---,0.00,VWS V14.01,2013-09-12 03:23:00,
2013-09-11 22:28:00,72.4,69.6,29.94,SSE,155,0.0,0.0,91,0.00,,---,0.00,VWS V14.01,2013-09-12 03:28:00,
2013-09-11 22:33:00,72.3,69.8,29.94,SSE,155,0.0,0.0,92,0.00,,---,0.00,VWS V14.01,2013-09-12 03:33:00,
2013-09-11 22:38:00,72.2,69.8,29.94,SSE,155,0.0,0.0,92,0.00,,---,0.00,VWS V14.01,2013-09-12 03:38:00,
2013-09-11 22:43:00,72.1,69.7,29.94,SSE,155,0.0,0.0,92,0.00,,---,0.00,VWS V14.01,2013-09-12 03:43:00,
2013-09-11 22:48:00,72.0,69.6,29.94,ESE,113,0.0,1.0,92,0.00,,---,0.00,VWS V14.01,2013-09-12 03:48:00,
2013-09-11 22:53:00,71.8,69.3,29.94,ESE,113,0.0,1.0,92,0.00,,---,0.00,VWS V14.01,2013-09-12 03:53:00,
2013-09-11 22:58:00,71.7,69.6,29.94,ESE,113,0.0,1.0,93,0.00,,---,0.00,VWS V14.01,2013-09-12 03:58:00,
2013-09-11 23:01:00,71.6,69.5,29.94,ESE,113,0.0,1.0,93,0.00,,---,0.00,VWS V14.01,2013-09-12 04:01:00,
2013-09-11 23:06:00,71.5,69.4,29.94,ESE,113,0.0,0.0,93,0.00,,---,0.00,VWS V14.01,2013-09-12 04:06:00,
2013-09-11 23:11:00,71.4,69.3,29.94,ESE,113,0.0,0.0,93,0.00,,---,0.00,VWS V14.01,2013-09-12 04:11:00,
2013-09-11 23:16:00,71.3,69.2,29.93,ESE,113,0.0,0.0,93,0.00,,---,0.00,VWS V14.01,2013-09-12 04:16:00,
2013-09-11 23:21:00,71.3,69.2,29.93,ESE,113,0.0,0.0,93,0.00,,---,0.00,VWS V14.01,2013-09-12 04:21:00,
2013-09-11 23:26:00,71.2,69.1,29.93,ESE,113,0.0,0.0,93,0.00,,---,0.00,VWS V14.01,2013-09-12 04:26:00,
2013-09-11 23:31:00,71.2,69.1,29.93,ESE,113,0.0,0.0,93,0.00,,---,0.00,VWS V14.01,2013-09-12 04:31:00,
2013-09-11 23:36:00,71.2,69.4,29.93,ESE,113,0.0,0.0,94,0.00,,---,0.00,VWS V14.01,2013-09-12 04:36:00,
2013-09-11 23:41:00,71.2,69.4,29.93,ESE,113,0.0,0.0,94,0.00,,---,0.00,VWS V14.01,2013-09-12 04:41:00,
2013-09-11 23:46:00,71.2,69.4,29.93,ESE,113,0.0,0.0,94,0.00,,---,0.00,VWS V14.01,2013-09-12 04:46:00,
2013-09-11 23:51:00,71.1,69.3,29.93,ESE,113,0.0,0.0,94,0.00,,---,0.00,VWS V14.01,2013-09-12 04:51:00,
2013-09-11 23:56:00,71.0,69.2,29.93,ESE,113,0.0,0.0,94,0.00,,---,0.00,VWS V14.01,2013-09-12 04:56:00,